Morton S Bouchard Jr — WSE9678 — position and weather

sailwx.info

Track history (hours):
 
Tides and Currents Weather Stations Pressure Air Temp Water Temp Dewpoint Dewpoint Depression Visibility Wind Speed Wind Dir Waves Ship Positions

Morton S Bouchard Jr

Owner: BOUCHARD TRANSPORTATION CO INC, MELVILLE, NY. More information available from US FCC via Universal Licensing System and Coast Guard Vessel Documentation Center.

Last reported at 2016-Jul-01 22:26 UTC. Time now 2016-Jul-02 04:01 UTC.
Position N 42°14' W 070°40'.

Length 33 m; draft 6.3 m.

Type: Tug. MMSI: 367006550.

Date/timePositionNaut miles runAvg speedWind from/ knotsBaromVisibWave heightAir tempDewpointWater temp
2016-Jul-01 22:26N 42°14' W 070°40'7 8.6
2016-Jul-01 21:34N 42°20' W 070°46'7 7.4
2016-Jul-01 20:34N 42°21' W 070°56'4 4.3
2016-Jul-01 19:34N 42°21' W 071°02'2 1.8
2016-Jul-01 18:34N 42°23' W 071°01'0 0.1
2016-Jul-01 17:33N 42°23' W 071°02'1 0.8
2016-Jul-01 16:34N 42°23' W 071°03'0 0.0
2016-Jul-01 15:33N 42°23' W 071°03'0 0.0
2016-Jul-01 14:34N 42°23' W 071°03'0 0.0
2016-Jul-01 13:34N 42°23' W 071°03'0 0.0
2016-Jul-01 12:33N 42°23' W 071°03'0 0.0
2016-Jul-01 11:34N 42°23' W 071°03'0 0.0
2016-Jul-01 10:33N 42°23' W 071°03'0 0.0
2016-Jul-01 09:34N 42°23' W 071°03'0 0.0
2016-Jul-01 08:34N 42°23' W 071°03'0 0.0
2016-Jul-01 07:34N 42°23' W 071°03'0 0.0
2016-Jul-01 06:34N 42°23' W 071°03'0 0.0
2016-Jul-01 05:34N 42°23' W 071°03'1 0.8
2016-Jul-01 04:33N 42°23' W 071°02'1 1.1
2016-Jul-01 03:33N 42°23' W 071°03'4 4.1
2016-Jul-01 02:34N 42°20' W 070°58'0 0.1
2016-Jul-01 01:34N 42°20' W 070°58'0 0.1
2016-Jul-01 00:34N 42°20' W 070°58'5 4.6
2016-Jun-30 23:34N 42°23' W 070°53'8 7.8
2016-Jun-30 22:34N 42°18' W 070°44'9 8.5
2016-Jun-30 21:33N 42°11' W 070°39'8 8.1
2016-Jun-30 20:34N 42°04' W 070°34'8 8.1
2016-Jun-30 19:34N 41°56' W 070°30'84 5.2
2016-Jun-30 03:29N 41°14' W 072°06'9 9.6
2016-Jun-30 02:33N 41°12' W 072°18'9 9.1
2016-Jun-30 01:34N 41°09' W 072°29'5 5.0
2016-Jun-30 00:34N 41°08' W 072°36'6 5.8
2016-Jun-29 23:34N 41°06' W 072°43'59 7.3
2016-Jun-29 15:32N 40°46' W 073°57'5 5.2
2016-Jun-29 14:34N 40°42' W 074°00'4 3.8
2016-Jun-29 13:33N 40°39' W 074°03'3 3.2
2016-Jun-29 12:34N 40°39' W 074°07'5 1.5
2016-Jun-29 09:31N 40°36' W 074°12'7 6.9
2016-Jun-29 08:34N 40°38' W 074°04'0 0.3
2016-Jun-29 07:33N 40°38' W 074°04'3 2.5
2016-Jun-29 06:33N 40°39' W 074°07'0 0.0
2016-Jun-29 05:33N 40°39' W 074°07'0 0.0
2016-Jun-29 04:22N 40°39' W 074°07'2 2.1
2016-Jun-29 03:34N 40°39' W 074°05'0 0.0
2016-Jun-29 02:34N 40°39' W 074°05'1 0.6
2016-Jun-29 01:34N 40°39' W 074°04'1 1.2
2016-Jun-29 00:34N 40°39' W 074°03'3 2.9
2016-Jun-28 23:34N 40°39' W 074°07'5 4.1
2016-Jun-28 22:21N 40°36' W 074°12'2 2.4
2016-Jun-28 21:33N 40°35' W 074°13'2 1.3
2016-Jun-28 20:06N 40°36' W 074°12'0 0.7
2016-Jun-28 19:33N 40°37' W 074°12'3 3.0
2016-Jun-28 18:34N 40°39' W 074°09'5 5.1
2016-Jun-28 17:34N 40°40' W 074°03'7 6.8
2016-Jun-28 16:34N 40°47' W 074°00'0 0.4
2016-Jun-28 15:34N 40°47' W 073°60'0 0.0
2016-Jun-28 14:33N 40°47' W 073°60'0 0.0
2016-Jun-28 13:34N 40°47' W 073°60'0 0.0
2016-Jun-28 12:34N 40°47' W 073°60'0 0.0
2016-Jun-28 11:34N 40°47' W 073°60'0 0.1
2016-Jun-28 10:33N 40°47' W 073°60'0 0.0
2016-Jun-28 09:34N 40°47' W 073°60'0 0.0
2016-Jun-28 08:33N 40°47' W 073°60'0 0.0
2016-Jun-28 07:33N 40°47' W 073°60'0 0.0
2016-Jun-28 06:34N 40°47' W 073°60'0 0.0
2016-Jun-28 04:33N 40°47' W 073°60'0 0.1
2016-Jun-28 03:34N 40°47' W 073°60'0 0.0
2016-Jun-28 02:33N 40°47' W 073°60'0 0.0
2016-Jun-28 01:34N 40°47' W 073°60'0 0.0
2016-Jun-28 00:34N 40°47' W 073°60'0 0.1
2016-Jun-27 23:34N 40°47' W 073°60'0 0.1
2016-Jun-27 22:34N 40°47' W 073°60'0 0.0
2016-Jun-27 21:33N 40°47' W 073°60'0 0.0
2016-Jun-27 20:34N 40°47' W 073°60'0 0.0
2016-Jun-27 17:28N 40°47' W 073°60'0 0.1
2016-Jun-27 15:33N 40°47' W 073°60'0 0.0
2016-Jun-27 14:31N 40°47' W 073°60'0 0.0
2016-Jun-27 13:31N 40°47' W 073°60'0 0.0
2016-Jun-27 12:34N 40°47' W 073°60'0 0.0
2016-Jun-27 11:34N 40°47' W 073°60'0 0.0
2016-Jun-27 10:33N 40°47' W 073°60'0 0.1
2016-Jun-27 09:29N 40°47' W 073°60'0 0.0
2016-Jun-27 08:10N 40°47' W 073°60'0 0.0
2016-Jun-27 07:33N 40°47' W 073°60'0 0.0
2016-Jun-27 06:33N 40°47' W 073°60'0 0.0
2016-Jun-27 05:33N 40°47' W 073°60'0 0.1
2016-Jun-27 04:32N 40°47' W 073°60'0 0.0
2016-Jun-27 03:33N 40°47' W 073°60'0 0.1
2016-Jun-27 02:33N 40°47' W 073°60'0 0.0
2016-Jun-27 01:32N 40°47' W 073°60'0 0.0
2016-Jun-27 00:30N 40°47' W 073°60'0 0.0
2016-Jun-26 23:33N 40°47' W 073°60'0 0.1
2016-Jun-26 22:33N 40°47' W 073°60'0 0.1
2016-Jun-26 21:33N 40°47' W 073°60'0 0.0
2016-Jun-26 20:16N 40°47' W 073°60'0 0.0
2016-Jun-26 18:04N 40°47' W 073°60'0 0.1
2016-Jun-26 17:34N 40°47' W 073°60'9 8.6
2016-Jun-26 16:34N 40°39' W 074°04'5 4.6
2016-Jun-26 15:33N 40°39' W 074°10'6 1.5
2016-Jun-26 11:26N 40°34' W 074°14'0 0.0
2016-Jun-26 10:23N 40°34' W 074°14'0 0.0
2016-Jun-26 09:32N 40°34' W 074°14'0 0.0
2016-Jun-26 08:16N 40°33' W 074°14'0 0.1
2016-Jun-26 07:34N 40°33' W 074°14'0 0.1
2016-Jun-26 06:34N 40°33' W 074°14'0 0.0
2016-Jun-26 05:33N 40°33' W 074°14'5 5.5
2016-Jun-26 04:33N 40°38' W 074°11'1 1.1
2016-Jun-26 03:33N 40°39' W 074°10'6 5.8
2016-Jun-26 02:33N 40°40' W 074°03'2 2.2
2016-Jun-26 01:34N 40°41' W 074°00'0 0.1
2016-Jun-26 00:34N 40°41' W 074°00'0 0.0
2016-Jun-25 23:34N 40°41' W 074°00'0 0.0
2016-Jun-25 22:34N 40°41' W 074°00'0 0.0
2016-Jun-25 21:33N 40°41' W 074°00'0 0.0
2016-Jun-25 20:34N 40°41' W 074°00'0 0.0
2016-Jun-25 19:34N 40°41' W 074°00'0 0.0
2016-Jun-25 18:33N 40°41' W 074°00'0 0.0
2016-Jun-25 17:34N 40°41' W 074°00'0 0.0
2016-Jun-25 16:34N 40°41' W 074°00'4 3.9
2016-Jun-25 15:34N 40°39' W 074°04'7 6.8
2016-Jun-25 14:32N 40°36' W 074°12'0 0.0
2016-Jun-25 13:13N 40°36' W 074°12'0 0.0
2016-Jun-25 11:14N 40°36' W 074°12'0 0.0
2016-Jun-25 08:33N 40°36' W 074°12'3 1.3
2016-Jun-25 06:28N 40°33' W 074°14'0 0.0
2016-Jun-23 18:32N 40°34' W 074°14'3 2.7
2016-Jun-23 17:32N 40°36' W 074°12'0 0.3
2016-Jun-23 16:31N 40°36' W 074°12'6 6.5
2016-Jun-23 15:33N 40°39' W 074°05'5 5.2
2016-Jun-23 14:32N 40°38' W 074°12'2 2.3
2016-Jun-23 13:32N 40°36' W 074°12'0 0.0
2016-Jun-23 12:34N 40°36' W 074°12'0 0.0
2016-Jun-23 11:33N 40°36' W 074°12'0 0.0
2016-Jun-23 10:33N 40°36' W 074°12'0 0.0
2016-Jun-23 09:33N 40°36' W 074°12'0 0.0
2016-Jun-23 08:34N 40°36' W 074°12'4 1.3
2016-Jun-23 05:33N 40°39' W 074°09'1 1.2
2016-Jun-23 04:33N 40°39' W 074°07'0 0.0
2016-Jun-23 03:19N 40°39' W 074°07'0 0.0
2016-Jun-23 02:27N 40°39' W 074°07'0 0.0
2016-Jun-23 01:09N 40°39' W 074°07'0 0.0
2016-Jun-22 23:25N 40°39' W 074°07'0 0.0
2016-Jun-22 22:31N 40°39' W 074°07'0 0.0
2016-Jun-22 21:33N 40°39' W 074°07'0 0.0
2016-Jun-22 20:34N 40°39' W 074°07'6 6.0
2016-Jun-22 19:34N 40°41' W 074°00'1 1.0
2016-Jun-22 18:33N 40°41' W 074°01'2 1.7
2016-Jun-22 17:33N 40°39' W 074°02'4 3.6
2016-Jun-22 16:33N 40°39' W 074°07'0 0.2
2016-Jun-22 15:29N 40°39' W 074°07'0 0.0
2016-Jun-22 14:34N 40°38' W 074°07'0 0.0
2016-Jun-22 13:34N 40°38' W 074°07'7 2.1
2016-Jun-22 10:12N 40°34' W 074°14'0 0.2
2016-Jun-22 09:33N 40°34' W 074°14'2 1.8
2016-Jun-22 08:34N 40°35' W 074°13'  
Track history (hours):
 
Tides and Currents Weather Stations Pressure Air Temp Water Temp Dewpoint Dewpoint Depression Visibility Wind Speed Wind Dir Waves Ship Positions

Morton S Bouchard Jr

Owner: BOUCHARD TRANSPORTATION CO INC, MELVILLE, NY. More information available from US FCC via Universal Licensing System and Coast Guard Vessel Documentation Center.

Last reported at 2016-Jul-01 22:26 UTC. Time now 2016-Jul-02 04:01 UTC.
Position N 42°14' W 070°40'.

Length 33 m; draft 6.3 m.

Type: Tug. MMSI: 367006550.

Date/timePositionNaut miles runAvg speedWind from/ knotsBaromVisibWave heightAir tempDewpointWater temp
2016-Jul-01 22:26N 42°14' W 070°40'7 8.6
2016-Jul-01 21:34N 42°20' W 070°46'7 7.4
2016-Jul-01 20:34N 42°21' W 070°56'4 4.3
2016-Jul-01 19:34N 42°21' W 071°02'2 1.8
2016-Jul-01 18:34N 42°23' W 071°01'0 0.1
2016-Jul-01 17:33N 42°23' W 071°02'1 0.8
2016-Jul-01 16:34N 42°23' W 071°03'0 0.0
2016-Jul-01 15:33N 42°23' W 071°03'0 0.0
2016-Jul-01 14:34N 42°23' W 071°03'0 0.0
2016-Jul-01 13:34N 42°23' W 071°03'0 0.0
2016-Jul-01 12:33N 42°23' W 071°03'0 0.0
2016-Jul-01 11:34N 42°23' W 071°03'0 0.0
2016-Jul-01 10:33N 42°23' W 071°03'0 0.0
2016-Jul-01 09:34N 42°23' W 071°03'0 0.0
2016-Jul-01 08:34N 42°23' W 071°03'0 0.0
2016-Jul-01 07:34N 42°23' W 071°03'0 0.0
2016-Jul-01 06:34N 42°23' W 071°03'0 0.0
2016-Jul-01 05:34N 42°23' W 071°03'1 0.8
2016-Jul-01 04:33N 42°23' W 071°02'1 1.1
2016-Jul-01 03:33N 42°23' W 071°03'4 4.1
2016-Jul-01 02:34N 42°20' W 070°58'0 0.1
2016-Jul-01 01:34N 42°20' W 070°58'0 0.1
2016-Jul-01 00:34N 42°20' W 070°58'5 4.6
2016-Jun-30 23:34N 42°23' W 070°53'8 7.8
2016-Jun-30 22:34N 42°18' W 070°44'9 8.5
2016-Jun-30 21:33N 42°11' W 070°39'8 8.1
2016-Jun-30 20:34N 42°04' W 070°34'8 8.1
2016-Jun-30 19:34N 41°56' W 070°30'84 5.2
2016-Jun-30 03:29N 41°14' W 072°06'9 9.6
2016-Jun-30 02:33N 41°12' W 072°18'9 9.1
2016-Jun-30 01:34N 41°09' W 072°29'5 5.0
2016-Jun-30 00:34N 41°08' W 072°36'6 5.8
2016-Jun-29 23:34N 41°06' W 072°43'59 7.3
2016-Jun-29 15:32N 40°46' W 073°57'5 5.2
2016-Jun-29 14:34N 40°42' W 074°00'4 3.8
2016-Jun-29 13:33N 40°39' W 074°03'3 3.2
2016-Jun-29 12:34N 40°39' W 074°07'5 1.5
2016-Jun-29 09:31N 40°36' W 074°12'7 6.9
2016-Jun-29 08:34N 40°38' W 074°04'0 0.3
2016-Jun-29 07:33N 40°38' W 074°04'3 2.5
2016-Jun-29 06:33N 40°39' W 074°07'0 0.0
2016-Jun-29 05:33N 40°39' W 074°07'0 0.0
2016-Jun-29 04:22N 40°39' W 074°07'2 2.1
2016-Jun-29 03:34N 40°39' W 074°05'0 0.0
2016-Jun-29 02:34N 40°39' W 074°05'1 0.6
2016-Jun-29 01:34N 40°39' W 074°04'1 1.2
2016-Jun-29 00:34N 40°39' W 074°03'3 2.9
2016-Jun-28 23:34N 40°39' W 074°07'5 4.1
2016-Jun-28 22:21N 40°36' W 074°12'2 2.4
2016-Jun-28 21:33N 40°35' W 074°13'2 1.3
2016-Jun-28 20:06N 40°36' W 074°12'0 0.7
2016-Jun-28 19:33N 40°37' W 074°12'3 3.0
2016-Jun-28 18:34N 40°39' W 074°09'5 5.1
2016-Jun-28 17:34N 40°40' W 074°03'7 6.8
2016-Jun-28 16:34N 40°47' W 074°00'0 0.4
2016-Jun-28 15:34N 40°47' W 073°60'0 0.0
2016-Jun-28 14:33N 40°47' W 073°60'0 0.0
2016-Jun-28 13:34N 40°47' W 073°60'0 0.0
2016-Jun-28 12:34N 40°47' W 073°60'0 0.0
2016-Jun-28 11:34N 40°47' W 073°60'0 0.1
2016-Jun-28 10:33N 40°47' W 073°60'0 0.0
2016-Jun-28 09:34N 40°47' W 073°60'0 0.0
2016-Jun-28 08:33N 40°47' W 073°60'0 0.0
2016-Jun-28 07:33N 40°47' W 073°60'0 0.0
2016-Jun-28 06:34N 40°47' W 073°60'0 0.0
2016-Jun-28 04:33N 40°47' W 073°60'0 0.1
2016-Jun-28 03:34N 40°47' W 073°60'0 0.0
2016-Jun-28 02:33N 40°47' W 073°60'0 0.0
2016-Jun-28 01:34N 40°47' W 073°60'0 0.0
2016-Jun-28 00:34N 40°47' W 073°60'0 0.1
2016-Jun-27 23:34N 40°47' W 073°60'0 0.1
2016-Jun-27 22:34N 40°47' W 073°60'0 0.0
2016-Jun-27 21:33N 40°47' W 073°60'0 0.0
2016-Jun-27 20:34N 40°47' W 073°60'0 0.0
2016-Jun-27 17:28N 40°47' W 073°60'0 0.1
2016-Jun-27 15:33N 40°47' W 073°60'0 0.0
2016-Jun-27 14:31N 40°47' W 073°60'0 0.0
2016-Jun-27 13:31N 40°47' W 073°60'0 0.0
2016-Jun-27 12:34N 40°47' W 073°60'0 0.0
2016-Jun-27 11:34N 40°47' W 073°60'0 0.0
2016-Jun-27 10:33N 40°47' W 073°60'0 0.1
2016-Jun-27 09:29N 40°47' W 073°60'0 0.0
2016-Jun-27 08:10N 40°47' W 073°60'0 0.0
2016-Jun-27 07:33N 40°47' W 073°60'0 0.0
2016-Jun-27 06:33N 40°47' W 073°60'0 0.0
2016-Jun-27 05:33N 40°47' W 073°60'0 0.1
2016-Jun-27 04:32N 40°47' W 073°60'0 0.0
2016-Jun-27 03:33N 40°47' W 073°60'0 0.1
2016-Jun-27 02:33N 40°47' W 073°60'0 0.0
2016-Jun-27 01:32N 40°47' W 073°60'0 0.0
2016-Jun-27 00:30N 40°47' W 073°60'0 0.0
2016-Jun-26 23:33N 40°47' W 073°60'0 0.1
2016-Jun-26 22:33N 40°47' W 073°60'0 0.1
2016-Jun-26 21:33N 40°47' W 073°60'0 0.0
2016-Jun-26 20:16N 40°47' W 073°60'0 0.0
2016-Jun-26 18:04N 40°47' W 073°60'0 0.1
2016-Jun-26 17:34N 40°47' W 073°60'9 8.6
2016-Jun-26 16:34N 40°39' W 074°04'5 4.6
2016-Jun-26 15:33N 40°39' W 074°10'6 1.5
2016-Jun-26 11:26N 40°34' W 074°14'0 0.0
2016-Jun-26 10:23N 40°34' W 074°14'0 0.0
2016-Jun-26 09:32N 40°34' W 074°14'0 0.0
2016-Jun-26 08:16N 40°33' W 074°14'0 0.1
2016-Jun-26 07:34N 40°33' W 074°14'0 0.1
2016-Jun-26 06:34N 40°33' W 074°14'0 0.0
2016-Jun-26 05:33N 40°33' W 074°14'5 5.5
2016-Jun-26 04:33N 40°38' W 074°11'1 1.1
2016-Jun-26 03:33N 40°39' W 074°10'6 5.8
2016-Jun-26 02:33N 40°40' W 074°03'2 2.2
2016-Jun-26 01:34N 40°41' W 074°00'0 0.1
2016-Jun-26 00:34N 40°41' W 074°00'0 0.0
2016-Jun-25 23:34N 40°41' W 074°00'0 0.0
2016-Jun-25 22:34N 40°41' W 074°00'0 0.0
2016-Jun-25 21:33N 40°41' W 074°00'0 0.0
2016-Jun-25 20:34N 40°41' W 074°00'0 0.0
2016-Jun-25 19:34N 40°41' W 074°00'0 0.0
2016-Jun-25 18:33N 40°41' W 074°00'0 0.0
2016-Jun-25 17:34N 40°41' W 074°00'0 0.0
2016-Jun-25 16:34N 40°41' W 074°00'4 3.9
2016-Jun-25 15:34N 40°39' W 074°04'7 6.8
2016-Jun-25 14:32N 40°36' W 074°12'0 0.0
2016-Jun-25 13:13N 40°36' W 074°12'0 0.0
2016-Jun-25 11:14N 40°36' W 074°12'0 0.0
2016-Jun-25 08:33N 40°36' W 074°12'3 1.3
2016-Jun-25 06:28N 40°33' W 074°14'0 0.0
2016-Jun-23 18:32N 40°34' W 074°14'3 2.7
2016-Jun-23 17:32N 40°36' W 074°12'0 0.3
2016-Jun-23 16:31N 40°36' W 074°12'6 6.5
2016-Jun-23 15:33N 40°39' W 074°05'5 5.2
2016-Jun-23 14:32N 40°38' W 074°12'2 2.3
2016-Jun-23 13:32N 40°36' W 074°12'0 0.0
2016-Jun-23 12:34N 40°36' W 074°12'0 0.0
2016-Jun-23 11:33N 40°36' W 074°12'0 0.0
2016-Jun-23 10:33N 40°36' W 074°12'0 0.0
2016-Jun-23 09:33N 40°36' W 074°12'0 0.0
2016-Jun-23 08:34N 40°36' W 074°12'4 1.3
2016-Jun-23 05:33N 40°39' W 074°09'1 1.2
2016-Jun-23 04:33N 40°39' W 074°07'0 0.0
2016-Jun-23 03:19N 40°39' W 074°07'0 0.0
2016-Jun-23 02:27N 40°39' W 074°07'0 0.0
2016-Jun-23 01:09N 40°39' W 074°07'0 0.0
2016-Jun-22 23:25N 40°39' W 074°07'0 0.0
2016-Jun-22 22:31N 40°39' W 074°07'0 0.0
2016-Jun-22 21:33N 40°39' W 074°07'0 0.0
2016-Jun-22 20:34N 40°39' W 074°07'6 6.0
2016-Jun-22 19:34N 40°41' W 074°00'1 1.0
2016-Jun-22 18:33N 40°41' W 074°01'2 1.7
2016-Jun-22 17:33N 40°39' W 074°02'4 3.6
2016-Jun-22 16:33N 40°39' W 074°07'0 0.2
2016-Jun-22 15:29N 40°39' W 074°07'0 0.0
2016-Jun-22 14:34N 40°38' W 074°07'0 0.0
2016-Jun-22 13:34N 40°38' W 074°07'7 2.1
2016-Jun-22 10:12N 40°34' W 074°14'0 0.2
2016-Jun-22 09:33N 40°34' W 074°14'2 1.8
2016-Jun-22 08:34N 40°35' W 074°13'  

Dump ship's entire track history